createdAt,value
2019-02-03T00:00:24.717Z,3.22
2019-02-03T00:11:24.943Z,3.22
2019-02-03T00:22:28.103Z,3.22
2019-02-03T00:33:26.741Z,3.21
2019-02-03T00:44:37.244Z,3.18
2019-02-03T00:55:36.832Z,3.21
2019-02-03T01:06:29.516Z,3.20
2019-02-03T01:17:28.817Z,3.20
2019-02-03T01:28:29.666Z,3.20
2019-02-03T01:39:25.463Z,3.19
2019-02-03T01:50:22.344Z,3.19
2019-02-03T02:01:23.539Z,3.19
2019-02-03T02:12:27.641Z,3.19
2019-02-03T02:23:29.679Z,3.19
2019-02-03T02:34:33.907Z,3.19
2019-02-03T02:45:33.848Z,3.19
2019-02-03T02:56:37.933Z,3.19
2019-02-03T03:07:38.594Z,3.19
2019-02-03T03:18:38.752Z,3.18
2019-02-03T03:29:40.331Z,3.18
2019-02-03T03:40:19.078Z,3.18
2019-02-03T03:51:16.689Z,3.17
2019-02-03T04:02:20.501Z,3.17
2019-02-03T04:13:24.849Z,3.17
2019-02-03T04:24:26.076Z,3.17
2019-02-03T04:35:28.934Z,3.16
2019-02-03T04:46:33.392Z,3.15
2019-02-03T04:57:38.103Z,3.15
2019-02-03T05:08:42.300Z,3.15
2019-02-03T05:19:47.059Z,3.15
2019-02-03T05:30:51.560Z,3.15
2019-02-03T05:41:52.566Z,3.15
2019-02-03T05:52:50.420Z,3.15
2019-02-03T06:03:49.044Z,3.15
2019-02-03T06:14:25.138Z,3.13
2019-02-03T06:25:22.884Z,3.13
2019-02-03T06:36:21.365Z,3.13
2019-02-03T06:47:23.531Z,3.13
2019-02-03T06:58:26.101Z,3.14
2019-02-03T07:09:27.767Z,3.14
2019-02-03T07:20:20.491Z,3.14
2019-02-03T07:31:18.941Z,3.14
2019-02-03T07:42:11.900Z,3.15
2019-02-03T07:53:12.000Z,3.15
2019-02-03T08:04:11.976Z,3.19
2019-02-03T08:15:14.713Z,3.19
2019-02-03T08:26:12.721Z,3.21
2019-02-03T08:37:15.785Z,3.23
2019-02-03T08:48:07.215Z,3.28
2019-02-03T08:59:11.578Z,3.28
2019-02-03T09:10:05.774Z,3.29
2019-02-03T09:21:03.854Z,3.33
2019-02-03T09:32:01.502Z,3.30
2019-02-03T09:43:01.149Z,3.30
2019-02-03T09:54:03.257Z,3.34
2019-02-03T10:05:01.715Z,3.37
2019-02-03T10:16:00.357Z,3.39
2019-02-03T10:26:58.968Z,3.39
2019-02-03T10:37:54.260Z,3.39
2019-02-03T10:48:40.085Z,3.39
2019-02-03T10:59:31.756Z,3.42
2019-02-03T11:10:23.910Z,3.37
2019-02-03T11:21:15.537Z,3.39
2019-02-03T11:32:19.772Z,3.37
2019-02-03T11:43:20.409Z,3.37
2019-02-03T11:54:23.106Z,3.39
2019-02-03T12:05:25.550Z,3.39
2019-02-03T12:16:28.185Z,3.39
2019-02-03T12:27:20.898Z,3.39
2019-02-03T12:38:20.106Z,3.39
2019-02-03T12:49:19.061Z,3.39
2019-02-03T13:00:19.701Z,3.38
2019-02-03T13:11:22.807Z,3.39
2019-02-03T13:22:26.001Z,3.38
2019-02-03T13:33:26.983Z,3.38
2019-02-03T13:44:28.971Z,3.36
2019-02-03T13:55:26.613Z,3.37
2019-02-03T14:06:26.490Z,3.36
2019-02-03T14:17:21.457Z,3.36
2019-02-03T14:28:15.350Z,3.35
2019-02-03T14:39:15.704Z,3.34
2019-02-03T14:50:17.442Z,3.34
2019-02-03T15:01:12.740Z,3.34
2019-02-03T15:12:14.198Z,3.33
2019-02-03T15:23:06.883Z,3.32
2019-02-03T15:33:50.991Z,3.31
2019-02-03T15:44:49.706Z,3.31
2019-02-03T15:55:45.169Z,3.30
2019-02-03T16:06:44.760Z,3.30
2019-02-03T16:17:45.819Z,3.30
2019-02-03T16:28:47.790Z,3.30
2019-02-03T16:39:42.866Z,3.29
2019-02-03T16:50:51.266Z,3.26
2019-02-03T17:01:43.921Z,3.28
2019-02-03T17:12:44.924Z,3.28
2019-02-03T17:23:39.803Z,3.28
2019-02-03T17:34:43.536Z,3.28
2019-02-03T17:45:42.807Z,3.28
2019-02-03T17:56:45.638Z,3.27
2019-02-03T18:07:42.702Z,3.27
2019-02-03T18:18:41.899Z,3.26
2019-02-03T18:29:45.306Z,3.26
2019-02-03T18:40:43.774Z,3.26
2019-02-03T18:51:35.970Z,3.25
2019-02-03T19:02:38.458Z,3.25
2019-02-03T19:13:37.853Z,3.25
2019-02-03T19:24:35.079Z,3.25
2019-02-03T19:35:31.683Z,3.24
2019-02-03T19:46:33.264Z,3.24
2019-02-03T19:57:34.859Z,3.23
2019-02-03T20:08:30.793Z,3.23
2019-02-03T20:19:42.091Z,3.20
2019-02-03T20:30:45.843Z,3.22
2019-02-03T20:41:43.702Z,3.22
2019-02-03T20:52:43.760Z,3.22
2019-02-03T21:03:46.962Z,3.22
2019-02-03T21:14:51.195Z,3.21
2019-02-03T21:25:53.651Z,3.21
2019-02-03T21:36:51.768Z,3.21
2019-02-03T21:47:55.206Z,3.20
2019-02-03T21:58:52.200Z,3.20
2019-02-03T22:09:56.917Z,3.20
2019-02-03T22:20:58.099Z,3.19
2019-02-03T22:32:01.603Z,3.19
2019-02-03T22:43:02.296Z,3.19
2019-02-03T22:54:03.278Z,3.19
2019-02-03T23:05:07.170Z,3.18
2019-02-03T23:16:17.707Z,3.18
2019-02-03T23:27:15.476Z,3.18
2019-02-03T23:38:14.763Z,3.17
2019-02-03T23:49:13.883Z,3.17
